Time;durP1;ratioP1;P1;durP2;ratioP2;P2;SDS_P1;SDS_P2;PMS_P1;PMS_P2;Temp;Humidity;BMP_temperature;BMP_pressure;BME280_temperature;BME280_humidity;BME280_pressure;Samples;Min_cycle;Max_cycle;Signal;HPM_P1;HPM_P2
2022/07/02 00:01:37;;;;;;;3.92;1.40;;;16.10;99.90;;;;;;5069949;28;20041;-77
2022/07/02 00:04:04;;;;;;;2.70;1.30;;;16.10;99.90;;;;;;5052541;28;20059;-77
2022/07/02 00:06:31;;;;;;;3.15;1.42;;;16.10;99.90;;;;;;5053044;28;20053;-77
2022/07/02 00:08:59;;;;;;;4.00;1.40;;;16.00;99.90;;;;;;5036604;28;20139;-76
2022/07/02 00:11:26;;;;;;;3.55;1.30;;;16.00;99.90;;;;;;5053240;28;20045;-77
2022/07/02 00:13:52;;;;;;;5.80;1.77;;;16.20;99.90;;;;;;5053355;28;20045;-77
2022/07/02 00:16:18;;;;;;;4.40;1.35;;;16.10;99.90;;;;;;5036136;28;20114;-77
2022/07/02 00:18:44;;;;;;;4.20;1.42;;;16.10;99.90;;;;;;5052975;28;20049;-77
2022/07/02 00:21:10;;;;;;;4.25;1.67;;;16.00;99.90;;;;;;5053007;28;20045;-77
2022/07/02 00:23:36;;;;;;;3.13;1.73;;;16.10;99.90;;;;;;5053010;28;20052;-77
2022/07/02 00:26:18;;;;;;;3.28;1.90;;;16.20;99.90;;;;;;5052917;28;20056;-77
2022/07/02 00:28:48;;;;;;;3.15;1.77;;;16.20;99.90;;;;;;5036521;28;20056;-77
2022/07/02 00:31:14;;;;;;;3.13;1.48;;;16.20;99.90;;;;;;5052240;28;20503;-77
2022/07/02 00:33:41;;;;;;;5.28;1.98;;;16.20;99.90;;;;;;5052743;28;20049;-77
2022/07/02 00:36:21;;;;;;;3.00;1.63;;;16.20;99.90;;;;;;5035601;28;20053;-77
2022/07/02 00:38:50;;;;;;;6.72;2.65;;;16.20;99.90;;;;;;5051832;28;20484;-77
2022/07/02 00:41:18;;;;;;;2.92;1.63;;;16.20;99.90;;;;;;5068824;28;20048;-77
2022/07/02 00:43:45;;;;;;;6.63;2.47;;;16.20;99.90;;;;;;5036110;28;20131;-77
2022/07/02 00:46:12;;;;;;;3.92;2.20;;;16.20;99.90;;;;;;5052429;28;20145;-77
2022/07/02 00:48:39;;;;;;;3.50;1.85;;;16.20;99.90;;;;;;5069346;28;20373;-77
2022/07/02 00:51:04;;;;;;;4.45;1.83;;;16.20;99.90;;;;;;5052635;28;20044;-77
2022/07/02 00:53:30;;;;;;;5.10;2.05;;;16.20;99.90;;;;;;5052612;28;20048;-77
2022/07/02 00:55:56;;;;;;;5.28;2.33;;;16.30;99.90;;;;;;5051748;28;20210;-77
2022/07/02 00:58:23;;;;;;;8.00;2.13;;;16.20;99.90;;;;;;5052045;28;20507;-77
2022/07/02 01:00:48;;;;;;;7.43;2.00;;;16.20;99.90;;;;;;5051894;28;20103;-77
2022/07/02 01:03:20;;;;;;;4.72;1.92;;;16.20;99.90;;;;;;5069030;28;20431;-77
2022/07/02 01:05:48;;;;;;;4.75;2.05;;;16.20;99.90;;;;;;5052556;28;20049;-76
2022/07/02 01:11:02;;;;;;;4.90;2.30;;;16.20;99.90;;;;;;5052503;28;20119;-76
2022/07/02 01:13:32;;;;;;;6.05;2.33;;;16.20;99.90;;;;;;5052381;28;20041;-77
2022/07/02 01:15:58;;;;;;;7.78;2.05;;;16.20;99.90;;;;;;5051993;28;20495;-77
2022/07/02 01:18:23;;;;;;;5.25;2.08;;;16.10;99.90;;;;;;5052347;28;20049;-77
2022/07/02 01:20:49;;;;;;;5.30;2.20;;;16.20;99.90;;;;;;5052406;28;20080;-77
2022/07/02 01:23:15;;;;;;;6.32;2.50;;;16.20;99.90;;;;;;5035787;28;20045;-77
2022/07/02 01:25:47;;;;;;;7.43;2.17;;;16.20;99.90;;;;;;5052069;28;20404;-77
2022/07/02 01:28:13;;;;;;;8.35;3.00;;;16.20;99.90;;;;;;5052294;28;20049;-77
2022/07/02 01:30:39;;;;;;;7.65;2.58;;;16.20;99.90;;;;;;5035308;28;20392;-77
2022/07/02 01:33:05;;;;;;;5.88;2.65;;;16.20;99.90;;;;;;5052143;28;20045;-77
2022/07/02 01:35:30;;;;;;;6.22;2.10;;;16.10;99.90;;;;;;5052213;28;20502;-77
2022/07/02 01:37:57;;;;;;;4.55;2.08;;;16.10;99.90;;;;;;5051915;28;20578;-77
2022/07/02 01:40:23;;;;;;;4.93;2.35;;;16.10;99.90;;;;;;5051918;28;20132;-77
2022/07/02 01:42:49;;;;;;;7.95;2.42;;;16.10;99.90;;;;;;5036117;28;20198;-77
2022/07/02 01:45:15;;;;;;;5.18;2.03;;;16.00;99.90;;;;;;5055562;28;20040;-77
2022/07/02 01:47:40;;;;;;;6.10;2.17;;;16.00;99.90;;;;;;5055723;28;20128;-77
2022/07/02 01:50:07;;;;;;;5.40;1.83;;;16.00;99.90;;;;;;5055820;28;20049;-77
2022/07/02 01:52:33;;;;;;;7.45;2.05;;;15.90;99.90;;;;;;5055811;28;20049;-77
2022/07/02 01:54:59;;;;;;;5.00;2.17;;;15.90;99.90;;;;;;5055788;28;20045;-77
2022/07/02 01:57:25;;;;;;;5.15;2.50;;;15.90;99.90;;;;;;5055740;28;20412;-77
2022/07/02 01:59:51;;;;;;;4.97;2.30;;;15.80;99.90;;;;;;5055539;28;20052;-77
2022/07/02 02:02:16;;;;;;;3.85;2.08;;;15.90;99.90;;;;;;5055668;28;20051;-77
2022/07/02 02:04:42;;;;;;;5.50;2.20;;;15.80;99.90;;;;;;5072227;28;20468;-77
2022/07/02 02:07:08;;;;;;;6.47;2.53;;;15.80;99.90;;;;;;5055583;28;20452;-77
2022/07/02 02:09:34;;;;;;;5.00;1.85;;;15.90;99.90;;;;;;5055182;28;20446;-77
2022/07/02 02:11:59;;;;;;;5.93;2.53;;;15.80;99.90;;;;;;5055047;28;20052;-77
2022/07/02 02:14:25;;;;;;;5.00;1.88;;;15.80;99.90;;;;;;5055420;28;20399;-77
2022/07/02 02:16:51;;;;;;;10.52;2.30;;;15.80;99.90;;;;;;5055018;28;20048;-77
2022/07/02 02:19:17;;;;;;;6.90;2.38;;;15.80;99.90;;;;;;5054921;28;20037;-77
2022/07/02 02:21:42;;;;;;;6.22;2.20;;;15.90;99.90;;;;;;5038690;28;20053;-77
2022/07/02 02:24:08;;;;;;;5.97;2.50;;;15.90;99.90;;;;;;5054962;28;20068;-77
2022/07/02 02:26:34;;;;;;;5.00;2.15;;;15.90;99.90;;;;;;5055119;28;20037;-77
2022/07/02 02:28:59;;;;;;;6.90;2.30;;;15.90;99.90;;;;;;5055130;28;20102;-77
2022/07/02 02:31:25;;;;;;;6.05;2.50;;;15.80;99.90;;;;;;5055284;28;20551;-77
2022/07/02 02:33:51;;;;;;;7.80;2.47;;;15.80;99.90;;;;;;5055118;28;20052;-77
2022/07/02 02:36:17;;;;;;;6.35;2.45;;;15.80;99.90;;;;;;5054985;28;20053;-77
2022/07/02 02:38:46;;;;;;;6.72;2.33;;;15.90;99.90;;;;;;5054274;28;20412;-77
2022/07/02 02:41:12;;;;;;;4.57;2.35;;;16.00;99.90;;;;;;5054844;28;20045;-77
2022/07/02 02:43:37;;;;;;;3.25;2.28;;;16.00;99.90;;;;;;5055284;28;20080;-77
2022/07/02 02:46:05;;;;;;;2.88;2.03;;;16.00;99.90;;;;;;5054418;28;20087;-77
2022/07/02 02:48:31;;;;;;;8.82;2.80;;;16.10;99.90;;;;;;5054311;28;20040;-77
2022/07/02 02:50:57;;;;;;;7.30;2.20;;;16.10;99.90;;;;;;5054703;28;20087;-77
2022/07/02 02:53:23;;;;;;;9.95;2.42;;;16.00;99.90;;;;;;5054657;28;20049;-77
2022/07/02 02:55:49;;;;;;;11.30;2.88;;;16.00;99.90;;;;;;5036956;28;20056;-77
2022/07/02 02:58:15;;;;;;;5.75;2.20;;;16.10;99.90;;;;;;5054624;28;20416;-77
2022/07/02 03:00:41;;;;;;;7.00;2.33;;;16.00;99.90;;;;;;5037708;28;20468;-77
2022/07/02 03:03:06;;;;;;;8.50;2.40;;;16.00;99.90;;;;;;5054487;28;20106;-77
2022/07/02 03:05:32;;;;;;;6.55;2.50;;;15.90;99.90;;;;;;5054695;28;20391;-77
2022/07/02 03:07:58;;;;;;;4.25;2.30;;;15.90;99.90;;;;;;5071026;28;20045;-78
2022/07/02 03:10:24;;;;;;;5.30;2.60;;;15.90;99.90;;;;;;5037708;28;20051;-77
2022/07/02 03:12:49;;;;;;;7.32;2.70;;;15.90;99.90;;;;;;5054286;28;20476;-77
2022/07/02 03:15:15;;;;;;;4.90;2.20;;;15.80;99.90;;;;;;5054568;28;20057;-81
2022/07/02 03:17:41;;;;;;;4.03;2.25;;;15.80;99.90;;;;;;5054167;28;20053;-77
2022/07/02 03:20:07;;;;;;;8.45;2.47;;;15.90;99.90;;;;;;5037634;28;20500;-77
2022/07/02 03:22:33;;;;;;;5.15;2.58;;;15.80;99.90;;;;;;5037588;28;20053;-77
2022/07/02 03:24:58;;;;;;;7.90;2.40;;;15.80;99.90;;;;;;5053750;28;20047;-77
2022/07/02 03:27:27;;;;;;;7.15;2.55;;;15.80;99.90;;;;;;5053780;28;20040;-77
2022/07/02 03:29:53;;;;;;;8.65;2.45;;;15.80;99.90;;;;;;5053927;28;20107;-77
2022/07/02 03:32:20;;;;;;;6.25;2.65;;;15.80;99.90;;;;;;5037243;28;20159;-77
2022/07/02 03:34:46;;;;;;;6.05;2.90;;;15.80;99.90;;;;;;5053365;28;20495;-77
2022/07/02 03:37:11;;;;;;;5.97;2.80;;;15.80;99.90;;;;;;5053740;28;20049;-77
2022/07/02 03:39:37;;;;;;;4.20;2.53;;;15.80;99.90;;;;;;5053837;28;20053;-77
2022/07/02 03:42:03;;;;;;;8.93;2.80;;;15.80;99.90;;;;;;5053736;28;20496;-76
2022/07/02 03:44:28;;;;;;;7.28;2.58;;;15.90;99.90;;;;;;5053831;28;20049;-77
2022/07/02 03:46:54;;;;;;;9.43;3.20;;;15.80;99.90;;;;;;5053302;28;20041;-77
2022/07/02 03:49:20;;;;;;;5.25;2.80;;;15.80;99.90;;;;;;5053628;28;20049;-77
2022/07/02 03:51:45;;;;;;;7.60;3.22;;;15.80;99.90;;;;;;5053404;28;20045;-77
2022/07/02 03:54:11;;;;;;;8.18;2.95;;;15.90;99.90;;;;;;5053346;28;20472;-77
2022/07/02 03:56:37;;;;;;;4.47;2.78;;;15.90;99.90;;;;;;5053245;28;20391;-77
2022/07/02 03:59:02;;;;;;;10.27;3.70;;;15.90;99.90;;;;;;5053330;28;20048;-77
2022/07/02 04:01:28;;;;;;;8.55;2.97;;;15.90;99.90;;;;;;5053412;28;20041;-76
2022/07/02 04:03:54;;;;;;;7.80;3.20;;;16.00;99.90;;;;;;5036711;28;20048;-76
2022/07/02 04:06:19;;;;;;;6.05;3.42;;;16.00;99.90;;;;;;5053097;28;20051;-77
2022/07/02 04:08:45;;;;;;;9.73;2.80;;;16.00;99.90;;;;;;5053212;28;20397;-77
2022/07/02 04:11:10;;;;;;;10.63;3.30;;;16.00;99.90;;;;;;5053227;28;20131;-77
2022/07/02 04:13:36;;;;;;;6.75;2.90;;;16.10;99.90;;;;;;5053132;28;20052;-77
2022/07/02 04:16:02;;;;;;;7.80;3.67;;;16.10;99.90;;;;;;5052821;28;20040;-77
2022/07/02 04:18:28;;;;;;;5.25;2.90;;;16.10;99.90;;;;;;5036553;28;20087;-77
2022/07/02 04:20:53;;;;;;;8.15;3.40;;;16.10;99.90;;;;;;5052789;28;20439;-76
2022/07/02 04:23:19;;;;;;;6.68;3.45;;;16.10;99.90;;;;;;5052993;28;20124;-77
2022/07/02 04:25:45;;;;;;;5.88;3.17;;;16.10;99.90;;;;;;5052954;28;20045;-77
2022/07/02 04:28:12;;;;;;;5.85;3.28;;;16.10;99.90;;;;;;5036482;28;20045;-77
2022/07/02 04:30:38;;;;;;;6.97;3.67;;;16.20;99.90;;;;;;5052864;28;20056;-76
2022/07/02 04:33:04;;;;;;;7.38;3.70;;;16.30;99.90;;;;;;5052880;28;20052;-77
2022/07/02 04:35:30;;;;;;;7.13;3.15;;;16.30;99.90;;;;;;5036290;28;20071;-77
2022/07/02 04:37:56;;;;;;;6.20;3.10;;;16.40;99.90;;;;;;5052343;28;20065;-77
2022/07/02 04:40:21;;;;;;;10.80;4.70;;;16.50;99.90;;;;;;5052563;28;20048;-77
2022/07/02 04:42:47;;;;;;;6.65;3.95;;;16.50;99.90;;;;;;5052648;28;20041;-77
2022/07/02 04:45:13;;;;;;;7.00;3.92;;;16.50;99.90;;;;;;5052878;28;20048;-77
2022/07/02 04:47:38;;;;;;;7.82;4.18;;;16.70;99.90;;;;;;5052285;28;20040;-77
2022/07/02 04:50:04;;;;;;;8.55;4.03;;;16.80;99.90;;;;;;5052813;28;20400;-77
2022/07/02 04:52:30;;;;;;;7.38;3.67;;;16.80;99.90;;;;;;5069276;28;20138;-77
2022/07/02 04:54:56;;;;;;;10.45;5.25;;;16.90;99.90;;;;;;5052626;28;20107;-77
2022/07/02 04:57:21;;;;;;;9.48;4.68;;;16.90;99.90;;;;;;5052271;28;20065;-77
2022/07/02 04:59:47;;;;;;;8.57;5.10;;;16.80;99.90;;;;;;5051988;28;20053;-77
2022/07/02 05:02:12;;;;;;;10.70;5.10;;;16.90;99.90;;;;;;5052035;28;20052;-77
2022/07/02 05:04:38;;;;;;;12.60;5.53;;;17.00;99.90;;;;;;5052465;28;20049;-77
2022/07/02 05:07:04;;;;;;;8.02;4.80;;;17.10;99.90;;;;;;5052466;28;20107;-77
2022/07/02 05:09:30;;;;;;;7.88;5.05;;;17.10;99.90;;;;;;5053418;28;20039;-77
2022/07/02 05:11:56;;;;;;;10.45;5.75;;;17.20;99.90;;;;;;5035524;28;20427;-77
2022/07/02 05:14:21;;;;;;;7.78;5.35;;;17.20;99.90;;;;;;5052397;28;20087;-77
2022/07/02 05:16:47;;;;;;;9.13;6.35;;;17.20;99.90;;;;;;5051943;28;20084;-77
2022/07/02 05:19:13;;;;;;;11.88;6.07;;;17.20;99.90;;;;;;5038644;28;20048;-77
2022/07/02 05:21:40;;;;;;;11.68;6.38;;;17.40;99.90;;;;;;5056025;28;20041;-78
2022/07/02 05:24:06;;;;;;;7.88;5.45;;;17.50;99.90;;;;;;5056319;28;20056;-78
2022/07/02 05:26:31;;;;;;;9.40;5.47;;;17.70;99.90;;;;;;5056335;28;20519;-77
2022/07/02 05:28:57;;;;;;;13.40;5.88;;;17.80;99.90;;;;;;5072786;28;20052;-77
2022/07/02 05:31:23;;;;;;;12.32;5.97;;;17.90;99.90;;;;;;5039672;28;20545;-77
2022/07/02 05:33:48;;;;;;;8.55;5.22;;;17.70;99.90;;;;;;5056341;28;20049;-77
2022/07/02 05:36:14;;;;;;;8.57;5.80;;;17.70;99.90;;;;;;5056172;28;20052;-77
2022/07/02 05:38:40;;;;;;;11.25;5.80;;;17.90;99.90;;;;;;5055563;28;20049;-77
2022/07/02 05:41:06;;;;;;;9.30;5.78;;;17.90;99.90;;;;;;5072396;28;20057;-77
2022/07/02 05:43:32;;;;;;;7.60;5.45;;;17.80;99.90;;;;;;5055999;28;20472;-77
2022/07/02 05:45:58;;;;;;;12.70;5.07;;;17.90;99.90;;;;;;5055597;28;20055;-77
2022/07/02 05:48:24;;;;;;;9.40;5.35;;;18.00;99.90;;;;;;5055969;28;20366;-77
2022/07/02 05:50:49;;;;;;;7.50;4.57;;;18.10;99.90;;;;;;5039346;28;20135;-77
2022/07/02 05:53:15;;;;;;;10.60;4.90;;;18.00;99.90;;;;;;5055866;28;20395;-77
2022/07/02 05:55:41;;;;;;;8.93;5.35;;;18.00;99.90;;;;;;5055717;28;20044;-77
2022/07/02 05:58:07;;;;;;;10.48;5.55;;;18.00;99.90;;;;;;5039187;28;20051;-76
2022/07/02 06:00:32;;;;;;;13.30;5.88;;;18.00;99.90;;;;;;5054778;28;20102;-77
2022/07/02 06:02:58;;;;;;;9.90;4.53;;;18.00;99.90;;;;;;5055363;28;20045;-77
2022/07/02 06:08:08;;;;;;;8.48;4.88;;;18.30;99.90;;;;;;5055696;28;20144;-77
2022/07/02 06:10:34;;;;;;;10.93;4.57;;;18.30;99.90;;;;;;5055491;28;20123;-76
2022/07/02 06:13:00;;;;;;;7.95;4.28;;;18.10;99.90;;;;;;5055458;28;20048;-77
2022/07/02 06:15:25;;;;;;;10.52;4.82;;;18.20;99.90;;;;;;5055453;28;20048;-77
2022/07/02 06:17:51;;;;;;;11.63;4.38;;;18.30;99.90;;;;;;5054973;28;20045;-77
2022/07/02 06:20:17;;;;;;;8.77;4.22;;;18.20;99.90;;;;;;5055028;28;20484;-77
2022/07/02 06:22:43;;;;;;;10.02;4.70;;;18.20;99.90;;;;;;5055305;28;20124;-76
2022/07/02 06:25:09;;;;;;;12.75;4.28;;;18.40;99.90;;;;;;5055689;28;20128;-77
2022/07/02 06:27:35;;;;;;;7.18;4.25;;;18.40;99.90;;;;;;5055197;28;20049;-77
2022/07/02 06:30:02;;;;;;;7.43;4.15;;;18.50;99.90;;;;;;5055035;28;20480;-77
2022/07/02 06:32:28;;;;;;;8.35;4.20;;;18.40;99.90;;;;;;5038398;28;20052;-77
2022/07/02 06:34:54;;;;;;;9.40;4.28;;;18.50;99.90;;;;;;5054949;28;20102;-77
2022/07/02 06:37:20;;;;;;;7.70;4.80;;;18.40;99.90;;;;;;5054085;28;20052;-77
2022/07/02 06:39:46;;;;;;;9.10;3.90;;;18.50;99.90;;;;;;5054447;28;20098;-77
2022/07/02 06:42:22;;;;;;;6.25;3.85;;;18.60;99.90;;;;;;5055251;28;20045;-77
2022/07/02 06:44:50;;;;;;;6.75;3.63;;;18.80;99.90;;;;;;5038320;28;20065;-77
2022/07/02 06:47:16;;;;;;;7.35;3.20;;;18.90;99.90;;;;;;5054428;28;20056;-77
2022/07/02 06:49:43;;;;;;;6.97;3.38;;;18.90;99.90;;;;;;5054770;28;20443;-77
2022/07/02 06:52:08;;;;;;;8.82;3.88;;;18.90;99.90;;;;;;5054829;28;20500;-77
2022/07/02 06:54:35;;;;;;;5.28;2.92;;;18.90;99.90;;;;;;5054805;28;20091;-77
2022/07/02 06:57:01;;;;;;;9.77;3.33;;;19.10;99.90;;;;;;5054574;28;20049;-77
2022/07/02 06:59:27;;;;;;;6.18;2.70;;;19.10;99.90;;;;;;5054532;28;20037;-77
2022/07/02 07:01:52;;;;;;;7.53;2.90;;;19.20;99.90;;;;;;5054498;28;20052;-77
2022/07/02 07:04:18;;;;;;;7.78;2.85;;;19.30;99.90;;;;;;5055140;28;20473;-77
2022/07/02 07:06:47;;;;;;;5.03;2.88;;;19.30;99.90;;;;;;5054327;28;20088;-77
2022/07/02 07:09:12;;;;;;;6.45;2.85;;;19.30;99.90;;;;;;5054440;28;20147;-77
2022/07/02 07:11:38;;;;;;;8.75;2.40;;;19.30;99.90;;;;;;5054335;28;20048;-76
2022/07/02 07:14:04;;;;;;;7.38;2.30;;;19.30;99.90;;;;;;5037560;28;20045;-77
2022/07/02 07:16:29;;;;;;;8.07;2.70;;;19.40;99.90;;;;;;5053744;28;20045;-77
2022/07/02 07:19:07;;;;;;;6.95;2.58;;;19.60;99.90;;;;;;5053983;28;20080;-77
2022/07/02 07:21:40;;;;;;;5.00;2.10;;;19.60;99.90;;;;;;5054050;28;20611;-77
2022/07/02 07:24:08;;;;;;;6.78;2.17;;;19.70;99.90;;;;;;5071057;28;20064;-77
2022/07/02 07:26:35;;;;;;;5.47;2.47;;;19.70;99.90;;;;;;5053963;28;20049;-77
2022/07/02 07:29:01;;;;;;;6.20;2.47;;;19.80;99.90;;;;;;5054119;28;20537;-77
2022/07/02 07:31:28;;;;;;;7.82;2.47;;;19.90;99.90;;;;;;5053968;28;20084;-77
2022/07/02 07:33:55;;;;;;;6.85;1.38;;;19.90;99.90;;;;;;5054007;28;20052;-79
2022/07/02 07:36:22;;;;;;;6.00;1.77;;;19.80;99.90;;;;;;5054094;28;20049;-82
2022/07/02 07:38:49;;;;;;;5.72;1.60;;;19.90;99.90;;;;;;5053288;28;20057;-78
2022/07/02 07:41:16;;;;;;;5.63;2.10;;;20.00;99.90;;;;;;5036209;28;20088;-76
2022/07/02 07:43:42;;;;;;;5.75;2.22;;;20.00;99.90;;;;;;5053836;28;20052;-79
2022/07/02 07:46:07;;;;;;;6.15;2.33;;;20.10;99.90;;;;;;5053317;28;20041;-75
2022/07/02 07:48:33;;;;;;;6.05;1.85;;;20.00;99.90;;;;;;5053751;28;20136;-78
2022/07/02 07:50:59;;;;;;;5.00;2.00;;;20.00;99.90;;;;;;5053646;28;20073;-78
2022/07/02 07:53:26;;;;;;;6.13;1.80;;;20.10;99.90;;;;;;5053591;28;20045;-76
2022/07/02 07:55:52;;;;;;;2.53;1.73;;;20.20;99.90;;;;;;5057774;28;20067;-75
2022/07/02 07:58:18;;;;;;;3.97;1.40;;;20.50;99.90;;;;;;5057328;28;20064;-75
2022/07/02 08:00:45;;;;;;;5.07;1.48;;;20.50;99.90;;;;;;5053213;28;20396;-75
2022/07/02 08:03:13;;;;;;;2.95;1.30;;;20.30;99.90;;;;;;5053375;28;20494;-75
2022/07/02 08:05:39;;;;;;;3.20;0.90;;;20.30;99.90;;;;;;5053363;28;20045;-75
2022/07/02 08:08:07;;;;;;;5.40;1.15;;;20.30;99.90;;;;;;5052960;28;20052;-76
2022/07/02 08:10:33;;;;;;;4.05;1.15;;;20.20;99.90;;;;;;5053242;28;20369;-76
2022/07/02 08:12:59;;;;;;;4.30;1.02;;;20.20;99.90;;;;;;5036627;28;20052;-76
2022/07/02 08:15:26;;;;;;;4.65;1.20;;;20.20;99.90;;;;;;5053160;28;20091;-75
2022/07/02 08:17:52;;;;;;;2.63;0.80;;;20.20;99.90;;;;;;5052473;28;20056;-75
2022/07/02 08:20:18;;;;;;;5.43;1.00;;;20.50;99.90;;;;;;5052856;28;20045;-75
2022/07/02 08:22:46;;;;;;;2.13;0.75;;;20.60;99.90;;;;;;5053072;28;20053;-75
2022/07/02 08:25:15;;;;;;;7.70;0.98;;;20.70;99.90;;;;;;5053000;28;20124;-76
2022/07/02 08:27:42;;;;;;;5.15;1.00;;;20.50;99.90;;;;;;5053093;28;20102;-77
2022/07/02 08:30:08;;;;;;;4.97;1.15;;;20.70;99.90;;;;;;5053028;28;20056;-76
2022/07/02 08:32:35;;;;;;;4.45;0.80;;;20.90;99.90;;;;;;5052911;28;20067;-76
2022/07/02 08:35:01;;;;;;;3.30;0.95;;;21.10;99.90;;;;;;5036268;28;20090;-76
2022/07/02 08:37:27;;;;;;;2.38;0.60;;;21.10;99.90;;;;;;5052546;28;20134;-75
2022/07/02 08:39:52;;;;;;;5.63;1.05;;;21.00;99.90;;;;;;5054051;28;20052;-76
2022/07/02 08:42:30;;;;;;;6.80;0.80;;;21.00;99.90;;;;;;5052759;28;20049;-76
2022/07/02 08:44:59;;;;;;;3.50;0.88;;;21.30;99.90;;;;;;5052737;28;20061;-76
2022/07/02 08:47:26;;;;;;;4.93;0.90;;;21.30;99.90;;;;;;5052302;28;20098;-75
2022/07/02 08:49:54;;;;;;;2.88;0.85;;;21.10;99.90;;;;;;5052628;28;20083;-76
2022/07/02 08:52:21;;;;;;;3.33;0.90;;;21.00;99.90;;;;;;5051971;28;20460;-76
2022/07/02 08:54:48;;;;;;;3.03;0.73;;;21.20;99.90;;;;;;5052458;28;20404;-76
2022/07/02 08:57:14;;;;;;;5.68;0.73;;;21.60;99.90;;;;;;5052776;28;20056;-75
2022/07/02 08:59:41;;;;;;;1.02;0.43;;;22.00;99.90;;;;;;5052386;28;20092;-75
2022/07/02 09:02:07;;;;;;;3.33;0.60;;;21.90;99.90;;;;;;5035947;28;20059;-80
2022/07/02 09:04:35;;;;;;;3.80;0.55;;;21.90;99.90;;;;;;5052446;28;20045;-76
2022/07/02 09:07:03;;;;;;;1.60;0.60;;;21.90;99.90;;;;;;5053202;28;20451;-76
2022/07/02 09:09:30;;;;;;;2.05;0.40;;;22.10;99.90;;;;;;5052497;28;20060;-75
2022/07/02 09:11:57;;;;;;;2.42;0.50;;;22.00;99.90;;;;;;5052439;28;20060;-75
2022/07/02 09:14:23;;;;;;;2.72;0.50;;;22.10;99.90;;;;;;5035989;28;20049;-75
2022/07/02 09:16:50;;;;;;;1.88;0.47;;;22.10;99.90;;;;;;5052030;28;20049;-74
2022/07/02 09:19:17;;;;;;;1.35;0.30;;;22.10;99.90;;;;;;5052385;28;20048;-76
2022/07/02 09:21:47;;;;;;;1.00;0.30;;;22.20;99.90;;;;;;5052007;28;20550;-75
2022/07/02 09:24:13;;;;;;;1.63;0.28;;;22.50;99.90;;;;;;5052575;28;20418;-76
2022/07/02 09:26:39;;;;;;;6.05;0.93;;;22.70;99.90;;;;;;5052384;28;20396;-75
2022/07/02 09:29:07;;;;;;;0.70;0.30;;;22.50;99.90;;;;;;5052573;28;20045;-75
2022/07/02 09:31:47;;;;;;;1.02;0.22;;;22.40;99.90;;;;;;5051754;28;20110;-75
2022/07/02 09:34:45;;;;;;;2.05;0.30;;;22.30;99.50;;;;;;5052302;28;20098;-76
2022/07/02 09:37:19;;;;;;;1.08;0.20;;;22.40;99.30;;;;;;5043850;28;20045;-76
2022/07/02 09:39:46;;;;;;;1.75;0.25;;;22.30;99.90;;;;;;5052380;28;20098;-75
2022/07/02 09:42:22;;;;;;;1.70;0.20;;;22.20;98.60;;;;;;5035506;28;20049;-76
2022/07/02 09:44:48;;;;;;;2.33;0.40;;;22.20;99.50;;;;;;5052274;28;20052;-77
2022/07/02 09:47:14;;;;;;;1.65;0.50;;;22.50;99.20;;;;;;5035208;28;20144;-75
2022/07/02 09:50:02;;;;;;;2.28;0.30;;;22.80;99.70;;;;;;5052090;28;20061;-75
2022/07/02 09:52:28;;;;;;;1.35;0.35;;;22.70;98.90;;;;;;5052107;28;20057;-75
2022/07/02 09:54:53;;;;;;;1.95;0.35;;;22.80;99.00;;;;;;5035151;28;20049;-76
2022/07/02 09:57:19;;;;;;;0.85;0.30;;;22.90;99.30;;;;;;5052000;28;20083;-75
2022/07/02 09:59:45;;;;;;;1.10;0.30;;;23.10;98.60;;;;;;5051850;28;20052;-75
2022/07/02 10:02:22;;;;;;;3.28;0.32;;;22.90;99.00;;;;;;5035536;28;20052;-75
2022/07/02 10:04:53;;;;;;;11.77;0.40;;;22.80;98.80;;;;;;5054163;28;20045;-75
2022/07/02 10:07:24;;;;;;;3.42;0.47;;;22.50;98.70;;;;;;5055311;28;20053;-76
2022/07/02 10:09:52;;;;;;;1.77;0.40;;;22.80;98.30;;;;;;5057355;28;20110;-74
2022/07/02 10:12:19;;;;;;;1.35;0.35;;;23.00;99.60;;;;;;5055178;28;20087;-75
2022/07/02 10:14:46;;;;;;;1.48;0.40;;;23.10;99.10;;;;;;5055616;28;20056;-75
2022/07/02 10:17:14;;;;;;;2.38;0.22;;;23.20;99.10;;;;;;5054988;28;20088;-75
2022/07/02 10:19:40;;;;;;;2.17;0.30;;;23.20;98.80;;;;;;5055274;28;20116;-76
2022/07/02 10:22:07;;;;;;;2.78;0.40;;;23.30;99.10;;;;;;5038618;28;20106;-74
2022/07/02 10:24:34;;;;;;;1.42;0.40;;;23.70;98.70;;;;;;5055322;28;20100;-75
2022/07/02 10:27:01;;;;;;;2.65;0.30;;;23.60;99.10;;;;;;5055291;28;20063;-74
2022/07/02 10:29:28;;;;;;;1.95;0.38;;;23.90;98.30;;;;;;5071608;28;20450;-75
2022/07/02 10:32:40;;;;;;;1.90;0.30;;;23.90;97.90;;;;;;5055374;28;20480;-74
2022/07/02 10:35:11;;;;;;;2.05;0.40;;;24.00;98.90;;;;;;5017591;28;20057;-74
2022/07/02 10:37:38;;;;;;;2.35;0.30;;;24.10;98.60;;;;;;5050923;28;20056;-75
2022/07/02 10:40:05;;;;;;;2.15;0.52;;;24.10;97.80;;;;;;5054807;28;20045;-74
2022/07/02 10:42:46;;;;;;;2.50;0.52;;;23.90;98.60;;;;;;5054824;28;20480;-75
2022/07/02 10:45:22;;;;;;;2.25;0.30;;;24.00;98.70;;;;;;5056167;28;20049;-75
2022/07/02 10:48:03;;;;;;;2.58;0.40;;;24.30;98.00;;;;;;5054650;28;20045;-75
2022/07/02 10:50:35;;;;;;;2.55;0.40;;;24.30;97.90;;;;;;5054916;28;20106;-75
2022/07/02 10:53:10;;;;;;;2.13;0.60;;;24.10;98.50;;;;;;5054758;28;20049;-75
2022/07/02 10:55:37;;;;;;;3.35;0.40;;;24.30;98.50;;;;;;5054753;28;20053;-75
2022/07/02 10:58:04;;;;;;;2.83;0.40;;;24.00;97.90;;;;;;5054645;28;20138;-75
2022/07/02 11:00:36;;;;;;;2.35;0.38;;;23.70;97.80;;;;;;5054419;28;20045;-76
2022/07/02 11:03:17;;;;;;;4.78;0.40;;;23.70;99.00;;;;;;5055885;28;20045;-76
2022/07/02 11:05:56;;;;;;;4.45;0.85;;;24.00;98.50;;;;;;5054510;28;20132;-76
2022/07/02 11:08:54;;;;;;;3.95;0.40;;;24.40;98.30;;;;;;5054718;28;20049;-79
2022/07/02 11:11:36;;;;;;;1.60;0.38;;;24.80;98.20;;;;;;5057361;28;20057;-77
2022/07/02 11:14:05;;;;;;;3.53;0.30;;;25.00;98.00;;;;;;5055061;28;20048;-77
2022/07/02 11:16:37;;;;;;;2.13;0.35;;;25.30;97.70;;;;;;5035331;28;20049;-78
2022/07/02 11:19:22;;;;;;;1.25;0.30;;;25.40;98.70;;;;;;5052624;28;20060;-78
2022/07/02 11:21:49;;;;;;;2.45;0.40;;;25.20;98.10;;;;;;5054221;28;20127;-76
2022/07/02 11:24:17;;;;;;;1.10;0.30;;;25.50;98.10;;;;;;5054186;28;20545;-76
2022/07/02 11:26:43;;;;;;;0.50;0.20;;;25.80;97.90;;;;;;5053850;28;20049;-76
2022/07/02 11:29:09;;;;;;;2.75;0.40;;;25.80;98.70;;;;;;5053845;28;20052;-76
2022/07/02 11:31:37;;;;;;;2.50;0.40;;;25.80;97.70;;;;;;5053999;28;20550;-76
2022/07/02 11:34:03;;;;;;;1.85;0.30;;;25.70;97.90;;;;;;5037539;28;20048;-76
2022/07/02 11:36:29;;;;;;;2.35;0.40;;;25.80;97.10;;;;;;5052713;28;20049;-77
2022/07/02 11:38:55;;;;;;;4.03;0.50;;;25.50;97.00;;;;;;5052938;28;20053;-75
2022/07/02 11:41:33;;;;;;;2.20;0.40;;;25.70;97.50;;;;;;5051774;28;20044;-75
2022/07/02 11:44:00;;;;;;;2.03;0.40;;;26.00;97.50;;;;;;5057735;28;20053;-77
2022/07/02 11:46:27;;;;;;;3.08;0.38;;;26.40;97.40;;;;;;5053358;28;20060;-73
2022/07/02 11:48:55;;;;;;;1.13;0.25;;;26.70;97.60;;;;;;5070020;28;20138;-77
2022/07/02 11:51:21;;;;;;;2.13;0.32;;;26.50;97.60;;;;;;5053621;28;20049;-75
2022/07/02 11:54:01;;;;;;;2.63;0.40;;;26.90;98.10;;;;;;5053522;28;20496;-80
2022/07/02 11:56:28;;;;;;;3.35;0.57;;;27.30;97.00;;;;;;5053526;28;20119;-80
2022/07/02 11:58:54;;;;;;;2.30;0.70;;;27.10;96.70;;;;;;5053207;28;20101;-81
2022/07/02 12:01:23;;;;;;;1.67;0.30;;;26.50;96.80;;;;;;5053213;28;20049;-82
2022/07/02 12:03:50;;;;;;;1.33;0.30;;;25.60;97.90;;;;;;5053051;28;20602;-84
2022/07/02 12:06:17;;;;;;;3.60;0.28;;;25.60;97.30;;;;;;5053765;28;20076;-94
2022/07/02 12:08:43;;;;;;;2.67;0.30;;;25.40;97.40;;;;;;5053635;28;20088;-76
2022/07/02 12:11:13;;;;;;;2.25;0.20;;;25.50;97.90;;;;;;5053274;28;20124;-77
2022/07/02 12:13:39;;;;;;;1.15;0.30;;;25.80;97.10;;;;;;5053237;28;20044;-77
2022/07/02 12:16:08;;;;;;;3.03;0.40;;;25.80;97.60;;;;;;5052823;28;20099;-77
2022/07/02 12:18:34;;;;;;;1.83;0.43;;;26.00;98.10;;;;;;5052859;28;20120;-76
2022/07/02 12:21:14;;;;;;;0.55;0.20;;;25.80;97.20;;;;;;5052806;28;20128;-77
2022/07/02 12:23:48;;;;;;;1.85;0.20;;;25.80;97.50;;;;;;5053086;28;20053;-76
2022/07/02 12:26:23;;;;;;;1.73;0.35;;;26.00;96.80;;;;;;5053413;28;20060;-77
2022/07/02 12:31:48;;;;;;;2.72;0.30;;;25.60;97.30;;;;;;5052933;28;20060;-76
2022/07/02 12:34:15;;;;;;;0.60;0.20;;;25.30;97.30;;;;;;5052800;28;20129;-75
2022/07/02 12:36:57;;;;;;;1.45;0.38;;;25.40;97.30;;;;;;5052874;28;20049;-78
2022/07/02 12:39:35;;;;;;;1.55;0.30;;;25.40;97.30;;;;;;5052930;28;20127;-75
2022/07/02 12:42:10;;;;;;;1.83;0.30;;;25.40;97.80;;;;;;5052828;28;20049;-75
2022/07/02 12:44:35;;;;;;;3.05;0.30;;;25.20;97.40;;;;;;5052844;28;20059;-74
2022/07/02 12:47:01;;;;;;;0.85;0.28;;;25.40;97.90;;;;;;5052032;28;20053;-81
2022/07/02 12:49:27;;;;;;;0.77;0.30;;;25.70;97.80;;;;;;5052088;28;20049;-81
2022/07/02 12:52:02;;;;;;;3.13;0.30;;;25.90;97.90;;;;;;5052470;28;20045;-81
2022/07/02 12:54:38;;;;;;;4.17;0.30;;;25.60;97.30;;;;;;5052686;28;20112;-81
2022/07/02 12:57:12;;;;;;;1.48;0.22;;;25.20;98.20;;;;;;5052884;28;20048;-81